Time;durP1;ratioP1;P1;durP2;ratioP2;P2;SDS_P1;SDS_P2;PMS_P1;PMS_P2;Temp;Humidity;BMP_temperature;BMP_pressure;BME280_temperature;BME280_humidity;BME280_pressure;Samples;Min_cycle;Max_cycle;Signal;HPM_P1;HPM_P2
2022/01/16 00:00:51;;;;;;;25.58;14.35;;;;;;;;;;5054221;28;20108;-65
2022/01/16 00:06:01;;;;;;;24.95;14.75;;;;;;;;;;5052342;28;20031;-74
2022/01/16 00:08:27;;;;;;;33.05;17.00;;;;;;;;;;5053179;28;20044;-67
2022/01/16 00:10:53;;;;;;;31.15;17.50;;;;;;;;;;5053248;28;20069;-72
2022/01/16 00:13:20;;;;;;;31.92;17.58;;;;;;;;;;5052511;28;20021;-71
2022/01/16 00:15:45;;;;;;;32.17;17.17;;;;;;;;;;5043595;28;20042;-65
2022/01/16 00:18:42;;;;;;;28.55;16.95;;;;;;;;;;5034347;28;20080;-69
2022/01/16 00:20:58;;;;;;;28.25;14.63;;;;;;;;;;5033684;28;20079;-73
2022/01/16 00:23:26;;;;;;;23.88;14.30;;;;;;;;;;5034363;28;20053;-72
2022/01/16 00:25:55;;;;;;;25.73;13.98;;;;;;;;;;5034417;28;20041;-73
2022/01/16 00:28:21;;;;;;;21.70;12.40;;;;;;;;;;5033837;28;20029;-72
2022/01/16 00:30:48;;;;;;;22.38;12.25;;;;;;;;;;5033268;28;20153;-71
2022/01/16 00:33:14;;;;;;;21.77;11.98;;;;;;;;;;5034044;28;20149;-72
2022/01/16 00:35:40;;;;;;;23.85;11.05;;;;;;;;;;5032882;28;20079;-70
2022/01/16 00:38:07;;;;;;;20.83;11.57;;;;;;;;;;5034513;28;20382;-71
2022/01/16 00:40:33;;;;;;;18.50;10.23;;;;;;;;;;5033651;28;20377;-72
2022/01/16 00:42:59;;;;;;;20.13;11.10;;;;;;;;;;5033469;28;20119;-72
2022/01/16 00:45:26;;;;;;;17.85;11.18;;;;;;;;;;5032422;28;20030;-69
2022/01/16 00:47:52;;;;;;;20.30;10.70;;;;;;;;;;5033569;28;20021;-70
2022/01/16 00:50:18;;;;;;;20.38;10.57;;;;;;;;;;5033453;28;20037;-69
2022/01/16 00:52:44;;;;;;;17.27;10.57;;;;;;;;;;5033381;28;20087;-65
2022/01/16 00:55:10;;;;;;;15.63;9.35;;;;;;;;;;5033369;28;20048;-66
2022/01/16 00:57:36;;;;;;;14.90;9.32;;;;;;;;;;5033016;28;20071;-69
2022/01/16 01:00:04;;;;;;;16.80;9.48;;;;;;;;;;5032057;28;20037;-69
2022/01/16 01:02:30;;;;;;;17.58;9.90;;;;;;;;;;5033406;28;20057;-69
2022/01/16 01:04:55;;;;;;;18.95;9.32;;;;;;;;;;5033002;28;20083;-68
2022/01/16 01:07:21;;;;;;;14.93;8.80;;;;;;;;;;5043534;28;20083;-68
2022/01/16 01:09:47;;;;;;;16.88;9.55;;;;;;;;;;5045606;28;20128;-63
2022/01/16 01:12:24;;;;;;;16.77;8.85;;;;;;;;;;5053110;28;20501;-69
2022/01/16 01:15:06;;;;;;;16.67;8.73;;;;;;;;;;5052936;28;20128;-63
2022/01/16 01:17:36;;;;;;;17.00;9.35;;;;;;;;;;5053029;28;20434;-68
2022/01/16 01:20:05;;;;;;;20.85;11.38;;;;;;;;;;5032888;28;20116;-71
2022/01/16 01:22:31;;;;;;;21.98;11.60;;;;;;;;;;5033040;28;20057;-65
2022/01/16 01:24:57;;;;;;;19.45;9.93;;;;;;;;;;5032764;28;20464;-64
2022/01/16 01:27:30;;;;;;;18.58;10.10;;;;;;;;;;5032932;28;20029;-63
2022/01/16 01:30:02;;;;;;;14.35;8.90;;;;;;;;;;5032501;28;20400;-68
2022/01/16 01:32:30;;;;;;;18.17;10.00;;;;;;;;;;5033067;28;20161;-70
2022/01/16 01:34:56;;;;;;;19.17;9.50;;;;;;;;;;5033068;28;20029;-61
2022/01/16 01:37:21;;;;;;;17.25;10.32;;;;;;;;;;5032962;28;20056;-62
2022/01/16 01:39:47;;;;;;;18.52;9.75;;;;;;;;;;5032759;28;20033;-62
2022/01/16 01:42:14;;;;;;;15.82;9.27;;;;;;;;;;5033003;28;20073;-61
2022/01/16 01:52:57;;;;;;;19.33;10.02;;;;;;;;;;5032554;28;20498;-64
2022/01/16 01:55:24;;;;;;;18.05;9.85;;;;;;;;;;5032738;28;20028;-62
2022/01/16 01:57:50;;;;;;;16.10;9.80;;;;;;;;;;5032392;28;20052;-62
2022/01/16 02:00:18;;;;;;;17.52;10.10;;;;;;;;;;5032363;28;20053;-62
2022/01/16 02:03:13;;;;;;;21.02;9.75;;;;;;;;;;5032150;28;20088;-61
2022/01/16 02:05:32;;;;;;;19.48;10.80;;;;;;;;;;5032058;28;20049;-63
2022/01/16 02:07:57;;;;;;;18.08;10.38;;;;;;;;;;5032105;28;20515;-61
2022/01/16 02:10:24;;;;;;;14.43;8.88;;;;;;;;;;5032267;28;20056;-62
2022/01/16 02:12:57;;;;;;;15.27;8.95;;;;;;;;;;5032466;28;20029;-62
2022/01/16 02:34:32;;;;;;;29.23;15.27;;;;;;;;;;5032007;28;20029;-63
2022/01/16 02:37:03;;;;;;;28.73;16.65;;;;;;;;;;5031832;28;20040;-62
2022/01/16 02:39:31;;;;;;;21.92;12.27;;;;;;;;;;5031680;28;20057;-62
2022/01/16 02:41:59;;;;;;;19.63;10.90;;;;;;;;;;5031568;28;20353;-62
2022/01/16 02:46:55;;;;;;;20.88;12.80;;;;;;;;;;5030043;28;20049;-62
2022/01/16 02:49:30;;;;;;;19.83;11.52;;;;;;;;;;5031775;28;20388;-62
2022/01/16 02:52:00;;;;;;;19.10;11.73;;;;;;;;;;5031474;28;20045;-61
2022/01/16 02:54:27;;;;;;;17.13;10.90;;;;;;;;;;5031735;28;20033;-62
2022/01/16 02:56:53;;;;;;;19.35;11.68;;;;;;;;;;5031924;28;20091;-63
2022/01/16 02:59:21;;;;;;;18.50;11.60;;;;;;;;;;5031890;28;20439;-62
2022/01/16 03:01:48;;;;;;;18.83;10.85;;;;;;;;;;5031876;28;20356;-66
2022/01/16 03:04:16;;;;;;;20.00;11.43;;;;;;;;;;5031605;28;20923;-68
2022/01/16 03:06:42;;;;;;;19.20;11.63;;;;;;;;;;5031410;28;20021;-62
2022/01/16 03:09:10;;;;;;;21.27;12.15;;;;;;;;;;5031570;28;20056;-65
2022/01/16 03:11:40;;;;;;;22.83;11.65;;;;;;;;;;5031478;28;20029;-63
2022/01/16 03:14:10;;;;;;;21.70;11.95;;;;;;;;;;5031721;28;20112;-63
2022/01/16 03:16:37;;;;;;;22.10;11.60;;;;;;;;;;5031252;28;20041;-65
2022/01/16 03:21:57;;;;;;;20.15;11.35;;;;;;;;;;5022914;28;20472;-63
2022/01/16 03:24:28;;;;;;;21.10;11.95;;;;;;;;;;5031515;28;20029;-63
2022/01/16 03:27:00;;;;;;;24.83;14.10;;;;;;;;;;5046174;28;20557;-68
2022/01/16 03:29:28;;;;;;;26.17;12.73;;;;;;;;;;5041573;28;20047;-67
2022/01/16 03:31:55;;;;;;;19.95;11.38;;;;;;;;;;5034993;28;20038;-65
2022/01/16 03:34:20;;;;;;;17.58;10.65;;;;;;;;;;5044809;28;20071;-65
2022/01/16 03:36:47;;;;;;;17.90;11.25;;;;;;;;;;5054912;28;20060;-64
2022/01/16 03:39:13;;;;;;;18.63;10.57;;;;;;;;;;5054520;28;20033;-63
2022/01/16 03:41:39;;;;;;;18.67;10.38;;;;;;;;;;5054771;28;20047;-66
2022/01/16 03:44:06;;;;;;;17.50;9.05;;;;;;;;;;5054797;28;20033;-63
2022/01/16 03:46:35;;;;;;;17.52;9.35;;;;;;;;;;5053762;28;20070;-63
2022/01/16 03:49:14;;;;;;;15.75;9.98;;;;;;;;;;5034830;28;20037;-61
2022/01/16 03:51:42;;;;;;;16.67;10.05;;;;;;;;;;5034576;28;20091;-68
2022/01/16 03:54:10;;;;;;;15.95;8.85;;;;;;;;;;5033423;28;20021;-65
2022/01/16 03:56:37;;;;;;;15.82;8.88;;;;;;;;;;5034792;28;20068;-66
2022/01/16 03:59:03;;;;;;;17.20;9.35;;;;;;;;;;5034500;28;20087;-61
2022/01/16 04:01:29;;;;;;;15.55;9.52;;;;;;;;;;5034849;28;20037;-64
2022/01/16 04:03:55;;;;;;;24.10;12.80;;;;;;;;;;5034133;28;20040;-63
2022/01/16 04:06:21;;;;;;;19.70;10.38;;;;;;;;;;5034768;28;20057;-63
2022/01/16 04:08:55;;;;;;;20.05;10.50;;;;;;;;;;5034037;28;20144;-64
2022/01/16 04:11:27;;;;;;;23.73;11.77;;;;;;;;;;5035123;28;20508;-67
2022/01/16 04:14:02;;;;;;;25.23;12.52;;;;;;;;;;5035255;28;20033;-63
2022/01/16 04:16:28;;;;;;;21.80;12.18;;;;;;;;;;5035393;28;20033;-66
2022/01/16 04:18:54;;;;;;;20.25;12.02;;;;;;;;;;5035281;28;20473;-68
2022/01/16 04:21:23;;;;;;;22.25;12.68;;;;;;;;;;5035433;28;20508;-63
2022/01/16 04:23:50;;;;;;;20.85;12.05;;;;;;;;;;5034375;28;20499;-63
2022/01/16 04:26:17;;;;;;;19.67;11.90;;;;;;;;;;5034726;28;20087;-64
2022/01/16 04:28:46;;;;;;;23.40;12.35;;;;;;;;;;5035476;28;20369;-63
2022/01/16 04:31:13;;;;;;;26.30;15.23;;;;;;;;;;5034741;28;20046;-62
2022/01/16 04:33:38;;;;;;;19.13;11.88;;;;;;;;;;5035144;28;20439;-63
2022/01/16 04:36:05;;;;;;;24.90;14.18;;;;;;;;;;5034961;28;20033;-63
2022/01/16 04:38:33;;;;;;;19.38;12.90;;;;;;;;;;5034739;28;20472;-64
2022/01/16 04:43:51;;;;;;;21.90;12.15;;;;;;;;;;5035371;28;20037;-64
2022/01/16 04:46:22;;;;;;;15.07;9.18;;;;;;;;;;5035122;28;20038;-62
2022/01/16 04:48:49;;;;;;;20.25;11.85;;;;;;;;;;5034607;28;20550;-62
2022/01/16 04:51:16;;;;;;;17.75;10.80;;;;;;;;;;5034891;28;20105;-64
2022/01/16 04:53:42;;;;;;;18.60;10.55;;;;;;;;;;5033734;28;20462;-64
2022/01/16 04:56:09;;;;;;;20.05;11.65;;;;;;;;;;5036641;28;20498;-64
2022/01/16 04:58:36;;;;;;;24.00;13.82;;;;;;;;;;5034506;28;20033;-63
2022/01/16 05:01:03;;;;;;;24.85;14.30;;;;;;;;;;5034317;28;20030;-64
2022/01/16 05:03:30;;;;;;;24.63;13.68;;;;;;;;;;5034543;28;20113;-62
2022/01/16 05:05:56;;;;;;;21.27;13.05;;;;;;;;;;5034527;28;20091;-63
2022/01/16 05:08:22;;;;;;;25.48;13.45;;;;;;;;;;5044526;28;20041;-63
2022/01/16 05:10:53;;;;;;;25.77;13.60;;;;;;;;;;5054001;28;20486;-64
2022/01/16 05:18:38;;;;;;;27.20;13.63;;;;;;;;;;5054197;28;20040;-63
2022/01/16 05:21:04;;;;;;;23.23;12.60;;;;;;;;;;5054074;28;20104;-64
2022/01/16 05:23:30;;;;;;;23.98;13.00;;;;;;;;;;5054103;28;20388;-63
2022/01/16 05:25:56;;;;;;;23.40;13.48;;;;;;;;;;5053852;28;20033;-63
2022/01/16 05:28:22;;;;;;;23.05;13.32;;;;;;;;;;5053845;28;20049;-66
2022/01/16 05:30:48;;;;;;;30.17;14.43;;;;;;;;;;5053931;28;20041;-63
2022/01/16 05:33:14;;;;;;;25.77;12.77;;;;;;;;;;5053773;28;20037;-64
2022/01/16 05:35:41;;;;;;;17.10;9.50;;;;;;;;;;5053698;28;20017;-64
2022/01/16 05:38:07;;;;;;;16.70;10.25;;;;;;;;;;5053674;28;20031;-67
2022/01/16 05:40:33;;;;;;;17.05;9.45;;;;;;;;;;5053844;28;20460;-68
2022/01/16 05:42:59;;;;;;;18.95;10.38;;;;;;;;;;5053902;28;20037;-64
2022/01/16 05:45:25;;;;;;;18.30;9.75;;;;;;;;;;5045327;28;20031;-65
2022/01/16 05:47:51;;;;;;;17.80;10.75;;;;;;;;;;5033111;28;20053;-66
2022/01/16 05:50:17;;;;;;;16.95;9.88;;;;;;;;;;5032994;28;20053;-67
2022/01/16 05:52:43;;;;;;;17.40;9.25;;;;;;;;;;5033131;28;20041;-67
2022/01/16 05:55:09;;;;;;;18.85;9.80;;;;;;;;;;5033517;28;20031;-70
2022/01/16 05:57:35;;;;;;;21.77;10.38;;;;;;;;;;5031849;28;20053;-69
2022/01/16 06:00:02;;;;;;;24.60;12.57;;;;;;;;;;5038849;28;20388;-71
2022/01/16 06:02:30;;;;;;;21.70;11.63;;;;;;;;;;5059374;28;20033;-71
2022/01/16 06:04:56;;;;;;;22.02;11.75;;;;;;;;;;5056469;28;20033;-69
2022/01/16 06:07:21;;;;;;;23.55;12.35;;;;;;;;;;5044979;28;20345;-72
2022/01/16 06:09:47;;;;;;;28.88;12.65;;;;;;;;;;5051380;28;20108;-73
2022/01/16 06:12:13;;;;;;;26.88;13.05;;;;;;;;;;5052210;28;20041;-71
2022/01/16 06:14:39;;;;;;;24.65;12.40;;;;;;;;;;5043706;28;20049;-69
2022/01/16 06:17:04;;;;;;;25.42;13.02;;;;;;;;;;5013259;28;20104;-69
2022/01/16 06:19:30;;;;;;;23.60;13.68;;;;;;;;;;5015490;28;20041;-69
2022/01/16 06:21:56;;;;;;;26.88;14.60;;;;;;;;;;5028350;28;20042;-69
2022/01/16 06:24:22;;;;;;;27.33;14.48;;;;;;;;;;5012923;28;20026;-71
2022/01/16 06:26:49;;;;;;;27.33;14.45;;;;;;;;;;5012540;28;20029;-68
2022/01/16 06:29:16;;;;;;;25.38;14.10;;;;;;;;;;5012706;28;20025;-68
2022/01/16 06:31:42;;;;;;;24.88;14.35;;;;;;;;;;5012453;28;20054;-69
2022/01/16 06:34:08;;;;;;;28.25;16.90;;;;;;;;;;5023986;28;20507;-76
2022/01/16 06:36:36;;;;;;;25.25;15.77;;;;;;;;;;5029420;28;20037;-70
2022/01/16 06:39:04;;;;;;;28.83;16.33;;;;;;;;;;5030719;28;20033;-70
2022/01/16 06:41:31;;;;;;;27.65;14.00;;;;;;;;;;5030284;28;20041;-70
2022/01/16 06:43:57;;;;;;;26.38;13.70;;;;;;;;;;5030357;28;20052;-70
2022/01/16 06:46:23;;;;;;;27.92;14.57;;;;;;;;;;5030666;28;20041;-73
2022/01/16 06:48:49;;;;;;;26.15;15.82;;;;;;;;;;5030657;28;20357;-72
2022/01/16 06:51:19;;;;;;;29.63;16.73;;;;;;;;;;5030772;28;20040;-70
2022/01/16 06:53:46;;;;;;;27.45;15.48;;;;;;;;;;5031348;28;20029;-69
2022/01/16 06:56:12;;;;;;;30.20;16.38;;;;;;;;;;5032061;28;20538;-71
2022/01/16 06:58:38;;;;;;;29.98;16.65;;;;;;;;;;5032139;28;20025;-70
2022/01/16 07:01:04;;;;;;;28.23;17.38;;;;;;;;;;5032311;28;20034;-71
2022/01/16 07:03:29;;;;;;;26.48;16.10;;;;;;;;;;5033572;28;20083;-70
2022/01/16 07:05:57;;;;;;;27.83;17.27;;;;;;;;;;5036512;28;20490;-71
2022/01/16 07:08:26;;;;;;;30.95;16.77;;;;;;;;;;5035916;28;20362;-70
2022/01/16 07:10:59;;;;;;;23.17;14.60;;;;;;;;;;5035660;28;20470;-69
2022/01/16 07:13:27;;;;;;;27.80;16.80;;;;;;;;;;5036473;28;20037;-71
2022/01/16 07:15:53;;;;;;;28.35;17.80;;;;;;;;;;5036439;28;20025;-71
2022/01/16 07:18:19;;;;;;;29.05;18.08;;;;;;;;;;5035748;28;20061;-70
2022/01/16 07:20:46;;;;;;;23.02;15.95;;;;;;;;;;5035901;28;20095;-70
2022/01/16 07:23:13;;;;;;;25.50;17.05;;;;;;;;;;5035429;28;20029;-70
2022/01/16 07:25:39;;;;;;;30.73;19.27;;;;;;;;;;5035807;28;20029;-72
2022/01/16 07:28:06;;;;;;;29.58;17.45;;;;;;;;;;5035962;28;20101;-73
2022/01/16 07:30:32;;;;;;;28.35;17.95;;;;;;;;;;5036002;28;20488;-70
2022/01/16 07:32:58;;;;;;;31.35;18.13;;;;;;;;;;5035703;28;20120;-75
2022/01/16 07:35:24;;;;;;;31.63;18.45;;;;;;;;;;5035304;28;20520;-76
2022/01/16 07:37:51;;;;;;;29.35;17.60;;;;;;;;;;5035760;28;20443;-74
2022/01/16 07:40:17;;;;;;;25.70;14.75;;;;;;;;;;5035385;28;20029;-72
2022/01/16 07:42:43;;;;;;;17.33;10.75;;;;;;;;;;5035594;28;20029;-75
2022/01/16 07:45:10;;;;;;;18.30;11.13;;;;;;;;;;5035591;28;20035;-74
2022/01/16 07:47:35;;;;;;;16.55;10.75;;;;;;;;;;5035110;28;20476;-73
2022/01/16 07:50:01;;;;;;;18.13;10.93;;;;;;;;;;5035212;28;20028;-72
2022/01/16 07:52:27;;;;;;;18.08;9.85;;;;;;;;;;5035235;28;20408;-72
2022/01/16 07:54:53;;;;;;;16.52;11.35;;;;;;;;;;5034940;28;20495;-73
2022/01/16 07:57:19;;;;;;;17.20;10.98;;;;;;;;;;5034949;28;20041;-74
2022/01/16 07:59:44;;;;;;;21.65;13.27;;;;;;;;;;5035016;28;20033;-71
2022/01/16 08:02:10;;;;;;;25.83;14.45;;;;;;;;;;5034421;28;20350;-73
2022/01/16 08:04:36;;;;;;;17.98;11.32;;;;;;;;;;5034714;28;20436;-72
2022/01/16 08:07:03;;;;;;;21.40;12.70;;;;;;;;;;5032486;28;20042;-71
2022/01/16 08:09:29;;;;;;;20.58;12.27;;;;;;;;;;5022671;28;20584;-72
2022/01/16 08:11:55;;;;;;;20.88;12.27;;;;;;;;;;5025914;28;20077;-75
2022/01/16 08:14:21;;;;;;;17.77;11.48;;;;;;;;;;5027421;28;20037;-70
2022/01/16 08:16:47;;;;;;;22.33;12.90;;;;;;;;;;5029933;28;20029;-71
2022/01/16 08:19:12;;;;;;;21.50;12.13;;;;;;;;;;5022825;28;20021;-69
2022/01/16 08:21:38;;;;;;;19.33;12.35;;;;;;;;;;5033413;28;20033;-70
2022/01/16 08:24:05;;;;;;;20.75;12.68;;;;;;;;;;5032580;28;20055;-72
2022/01/16 08:26:32;;;;;;;22.13;12.52;;;;;;;;;;5043145;28;20392;-70
2022/01/16 08:28:58;;;;;;;25.25;13.32;;;;;;;;;;5038514;28;20055;-71
2022/01/16 08:31:25;;;;;;;22.50;12.90;;;;;;;;;;5033047;28;20137;-72
2022/01/16 08:33:50;;;;;;;19.08;12.98;;;;;;;;;;5033556;28;20117;-71
2022/01/16 08:36:16;;;;;;;21.17;12.77;;;;;;;;;;5033505;28;20273;-71
2022/01/16 08:38:43;;;;;;;20.75;12.57;;;;;;;;;;5033391;28;20369;-70
2022/01/16 08:41:08;;;;;;;22.33;13.82;;;;;;;;;;5034386;28;20030;-71
2022/01/16 08:43:34;;;;;;;19.77;13.18;;;;;;;;;;5034136;28;20078;-71
2022/01/16 08:46:00;;;;;;;20.98;12.45;;;;;;;;;;5034120;28;20030;-71
2022/01/16 08:48:27;;;;;;;19.45;10.15;;;;;;;;;;5024018;28;20110;-70
2022/01/16 08:50:53;;;;;;;17.70;9.80;;;;;;;;;;5014373;28;20042;-71
2022/01/16 08:53:20;;;;;;;16.45;10.23;;;;;;;;;;5014727;28;20037;-71
2022/01/16 08:55:46;;;;;;;17.13;10.65;;;;;;;;;;5013109;28;20053;-71
2022/01/16 08:58:12;;;;;;;16.13;10.02;;;;;;;;;;5013959;28;20476;-70
2022/01/16 09:00:38;;;;;;;16.65;10.50;;;;;;;;;;5013163;28;20038;-70
2022/01/16 09:03:04;;;;;;;17.10;11.02;;;;;;;;;;5013853;28;20045;-71
2022/01/16 09:05:30;;;;;;;17.60;10.25;;;;;;;;;;5014121;28;20392;-69
2022/01/16 09:07:56;;;;;;;15.82;9.93;;;;;;;;;;5025856;28;20044;-70
2022/01/16 09:10:22;;;;;;;16.90;10.32;;;;;;;;;;5032390;28;20037;-70
2022/01/16 09:12:48;;;;;;;14.95;9.70;;;;;;;;;;5016134;28;20029;-70
2022/01/16 09:15:14;;;;;;;17.30;10.45;;;;;;;;;;5033716;28;20059;-70
2022/01/16 09:17:40;;;;;;;14.77;10.43;;;;;;;;;;5033421;28;20029;-69
2022/01/16 09:20:07;;;;;;;19.35;12.48;;;;;;;;;;5033771;28;20030;-69
2022/01/16 09:22:34;;;;;;;21.20;12.43;;;;;;;;;;5033440;28;20449;-69
2022/01/16 09:25:00;;;;;;;24.35;11.75;;;;;;;;;;5033343;28;20033;-71
2022/01/16 09:27:25;;;;;;;16.77;10.30;;;;;;;;;;5032225;28;20431;-70
2022/01/16 09:29:51;;;;;;;17.02;10.60;;;;;;;;;;5033638;28;20041;-72
2022/01/16 09:32:17;;;;;;;17.92;11.45;;;;;;;;;;5032862;28;20049;-73
2022/01/16 09:34:43;;;;;;;17.35;10.65;;;;;;;;;;5033125;28;20114;-70
2022/01/16 09:37:10;;;;;;;17.83;10.57;;;;;;;;;;5032919;28;20021;-72
2022/01/16 09:39:37;;;;;;;18.92;11.50;;;;;;;;;;5033385;28;20033;-71
2022/01/16 09:42:05;;;;;;;19.27;11.68;;;;;;;;;;5034013;28;20021;-71
2022/01/16 09:44:34;;;;;;;19.48;11.90;;;;;;;;;;5033490;28;20049;-72
2022/01/16 09:47:00;;;;;;;19.00;12.30;;;;;;;;;;5032861;28;20036;-73
2022/01/16 09:49:26;;;;;;;22.15;12.48;;;;;;;;;;5032398;28;20112;-71
2022/01/16 09:51:52;;;;;;;24.45;12.43;;;;;;;;;;5013293;28;20037;-69
2022/01/16 09:54:20;;;;;;;20.25;12.45;;;;;;;;;;5013347;28;20405;-70
2022/01/16 09:56:46;;;;;;;16.73;11.07;;;;;;;;;;5013105;28;20026;-71
2022/01/16 09:59:12;;;;;;;21.42;13.23;;;;;;;;;;5012367;28;20053;-69
2022/01/16 10:01:38;;;;;;;18.60;11.73;;;;;;;;;;5012480;28;20038;-71
2022/01/16 10:04:04;;;;;;;20.23;11.82;;;;;;;;;;5024034;28;20473;-72
2022/01/16 10:06:30;;;;;;;19.48;11.90;;;;;;;;;;5032625;28;20030;-72
2022/01/16 10:08:56;;;;;;;18.88;11.82;;;;;;;;;;5032758;28;20064;-70
2022/01/16 10:11:33;;;;;;;21.27;12.43;;;;;;;;;;5032684;28;20021;-72
2022/01/16 10:16:29;;;;;;;19.67;12.02;;;;;;;;;;5031661;28;20049;-70
2022/01/16 10:18:55;;;;;;;22.40;12.85;;;;;;;;;;5032121;28;20480;-72
2022/01/16 10:21:35;;;;;;;21.17;12.98;;;;;;;;;;5030817;28;20026;-70
2022/01/16 10:24:18;;;;;;;23.38;12.02;;;;;;;;;;5032182;28;20038;-72
2022/01/16 10:26:46;;;;;;;23.17;12.60;;;;;;;;;;5032720;28;20025;-71
2022/01/16 10:29:17;;;;;;;20.67;13.13;;;;;;;;;;5032330;28;20059;-71
2022/01/16 10:31:43;;;;;;;24.63;14.40;;;;;;;;;;5031882;28;20088;-70
2022/01/16 10:34:31;;;;;;;24.50;13.50;;;;;;;;;;5032298;28;20037;-72
2022/01/16 10:36:59;;;;;;;23.95;13.43;;;;;;;;;;5032097;28;20045;-71
2022/01/16 10:39:25;;;;;;;26.55;16.05;;;;;;;;;;5032085;28;20468;-70
2022/01/16 10:42:16;;;;;;;26.30;16.30;;;;;;;;;;5032035;28;20622;-70
2022/01/16 10:44:43;;;;;;;24.45;15.50;;;;;;;;;;5032370;28;20108;-71
2022/01/16 10:47:30;;;;;;;23.60;15.52;;;;;;;;;;5031968;28;20018;-74
2022/01/16 10:50:14;;;;;;;23.65;15.77;;;;;;;;;;5031956;28;20033;-72
2022/01/16 10:52:51;;;;;;;41.75;26.67;;;;;;;;;;5031949;28;20116;-72
2022/01/16 10:55:19;;;;;;;19.13;12.55;;;;;;;;;;5031289;28;20143;-69
2022/01/16 10:57:45;;;;;;;23.10;13.27;;;;;;;;;;5031363;28;20065;-74
2022/01/16 11:00:20;;;;;;;19.27;13.45;;;;;;;;;;5030407;28;20036;-71
2022/01/16 11:02:50;;;;;;;20.50;12.65;;;;;;;;;;5031556;28;20030;-70
2022/01/16 11:05:20;;;;;;;18.48;11.50;;;;;;;;;;5031963;28;20769;-72
2022/01/16 11:07:56;;;;;;;24.00;14.15;;;;;;;;;;5031250;28;20460;-73
2022/01/16 11:10:26;;;;;;;21.25;13.20;;;;;;;;;;5031504;28;20037;-70
2022/01/16 11:12:58;;;;;;;17.50;10.35;;;;;;;;;;5030468;28;20465;-72
2022/01/16 11:15:24;;;;;;;18.80;11.40;;;;;;;;;;5031848;28;20037;-71
2022/01/16 11:17:52;;;;;;;17.05;11.25;;;;;;;;;;5031411;28;20515;-73
2022/01/16 11:20:22;;;;;;;20.15;11.98;;;;;;;;;;5031029;28;20131;-72
2022/01/16 11:25:46;;;;;;;19.10;10.48;;;;;;;;;;5041095;28;20045;-71
2022/01/16 11:28:18;;;;;;;14.70;8.68;;;;;;;;;;5032025;28;20404;-72
2022/01/16 11:30:47;;;;;;;15.15;8.82;;;;;;;;;;5031542;28;20488;-76
2022/01/16 11:33:15;;;;;;;14.98;9.75;;;;;;;;;;5031223;28;20041;-75
2022/01/16 11:35:49;;;;;;;15.25;9.88;;;;;;;;;;5031438;28;20507;-74
2022/01/16 11:38:18;;;;;;;15.88;9.60;;;;;;;;;;5031356;28;20041;-70
2022/01/16 11:40:46;;;;;;;18.27;10.88;;;;;;;;;;5031892;28;20021;-71
2022/01/16 11:43:12;;;;;;;16.80;9.93;;;;;;;;;;5031199;28;20105;-71
2022/01/16 11:45:49;;;;;;;13.35;7.88;;;;;;;;;;5030658;28;20037;-72
2022/01/16 11:48:32;;;;;;;15.05;7.25;;;;;;;;;;5030273;28;20038;-71
2022/01/16 11:50:58;;;;;;;15.35;8.10;;;;;;;;;;5034903;28;20480;-70
2022/01/16 11:53:57;;;;;;;13.65;7.55;;;;;;;;;;5034740;28;20044;-69
2022/01/16 11:56:41;;;;;;;13.38;7.72;;;;;;;;;;5035008;28;20036;-72
2022/01/16 11:59:27;;;;;;;12.43;6.88;;;;;;;;;;5035435;28;20423;-71
2022/01/16 12:02:01;;;;;;;13.30;7.53;;;;;;;;;;5034740;28;20041;-71
2022/01/16 12:04:30;;;;;;;11.70;6.82;;;;;;;;;;5034673;28;20112;-71
2022/01/16 12:07:04;;;;;;;12.75;8.32;;;;;;;;;;5034764;28;20026;-70
2022/01/16 12:09:47;;;;;;;12.15;7.03;;;;;;;;;;5034481;28;20507;-70
2022/01/16 12:12:16;;;;;;;16.20;9.23;;;;;;;;;;5034798;28;20084;-70
2022/01/16 12:15:02;;;;;;;17.90;10.15;;;;;;;;;;5034465;28;20488;-69
2022/01/16 12:20:13;;;;;;;20.35;11.75;;;;;;;;;;5034886;28;20080;-70
2022/01/16 12:22:43;;;;;;;17.67;10.13;;;;;;;;;;5034498;28;20061;-70
2022/01/16 12:25:21;;;;;;;12.90;7.45;;;;;;;;;;5034785;28;20030;-70
2022/01/16 12:27:53;;;;;;;13.00;7.70;;;;;;;;;;5034679;28;20100;-72
2022/01/16 12:30:38;;;;;;;22.80;10.77;;;;;;;;;;5033896;28;20069;-71
2022/01/16 12:33:31;;;;;;;14.43;7.95;;;;;;;;;;5034387;28;20040;-70
2022/01/16 12:36:05;;;;;;;14.30;8.38;;;;;;;;;;5033410;28;20042;-70
2022/01/16 12:38:33;;;;;;;23.48;10.88;;;;;;;;;;5033830;28;20946;-69
2022/01/16 12:41:02;;;;;;;20.73;10.57;;;;;;;;;;5034179;28;20388;-71
2022/01/16 12:43:33;;;;;;;10.00;6.03;;;;;;;;;;5034211;28;20042;-71
2022/01/16 12:46:04;;;;;;;16.02;7.40;;;;;;;;;;5034147;28;20120;-70
2022/01/16 12:48:30;;;;;;;12.93;7.13;;;;;;;;;;5034309;28;20051;-69
2022/01/16 12:51:02;;;;;;;14.52;7.80;;;;;;;;;;5021480;28;20077;-71
2022/01/16 12:53:42;;;;;;;9.20;5.15;;;;;;;;;;5032606;28;20037;-71
2022/01/16 12:56:20;;;;;;;20.45;7.10;;;;;;;;;;5015523;28;20072;-72
2022/01/16 12:58:47;;;;;;;6.75;3.78;;;;;;;;;;5033843;28;20033;-68
2022/01/16 13:01:13;;;;;;;8.43;4.60;;;;;;;;;;5036320;28;20045;-71
2022/01/16 13:03:43;;;;;;;9.85;5.32;;;;;;;;;;5034622;28;20052;-69
2022/01/16 13:06:24;;;;;;;9.55;4.80;;;;;;;;;;5032916;28;20117;-73
2022/01/16 13:08:57;;;;;;;7.57;5.05;;;;;;;;;;5033242;28;20037;-71
2022/01/16 13:11:25;;;;;;;13.70;7.55;;;;;;;;;;5027772;28;20440;-73
2022/01/16 13:13:52;;;;;;;7.07;4.57;;;;;;;;;;5018634;28;20038;-70
2022/01/16 13:16:20;;;;;;;11.90;6.78;;;;;;;;;;5016335;28;20044;-70
2022/01/16 13:19:08;;;;;;;9.35;5.97;;;;;;;;;;5021153;28;20108;-72
2022/01/16 13:22:11;;;;;;;14.60;6.68;;;;;;;;;;5012313;28;20129;-72
2022/01/16 13:24:38;;;;;;;23.10;12.10;;;;;;;;;;5012632;28;20069;-71
2022/01/16 13:27:13;;;;;;;12.55;7.53;;;;;;;;;;5010747;28;20034;-71
2022/01/16 13:33:19;;;;;;;9.05;5.28;;;;;;;;;;4059290;28;20056;-71
2022/01/16 13:35:45;;;;;;;9.48;4.85;;;;;;;;;;5031452;28;20034;-71
2022/01/16 13:38:11;;;;;;;7.20;4.38;;;;;;;;;;5032068;28;20029;-69
2022/01/16 13:40:39;;;;;;;10.80;6.00;;;;;;;;;;5029779;28;20122;-70
2022/01/16 13:43:11;;;;;;;9.50;5.53;;;;;;;;;;5031026;28;20037;-70
2022/01/16 13:45:39;;;;;;;8.57;5.00;;;;;;;;;;5030481;28;20079;-70
2022/01/16 13:48:05;;;;;;;7.85;4.43;;;;;;;;;;5031645;28;20025;-70
2022/01/16 13:50:49;;;;;;;10.85;5.45;;;;;;;;;;5031375;28;20483;-69
2022/01/16 13:53:21;;;;;;;20.48;11.40;;;;;;;;;;5032055;28;20037;-74
2022/01/16 13:55:52;;;;;;;11.80;6.07;;;;;;;;;;5030769;28;20133;-70
2022/01/16 13:58:27;;;;;;;6.60;4.60;;;;;;;;;;5030354;28;20033;-71
2022/01/16 14:00:54;;;;;;;10.07;4.68;;;;;;;;;;5031866;28;20145;-73
2022/01/16 14:03:23;;;;;;;10.70;6.00;;;;;;;;;;5030282;28;20095;-72
2022/01/16 14:05:51;;;;;;;8.30;5.10;;;;;;;;;;5018789;28;20037;-69
2022/01/16 14:08:28;;;;;;;9.80;4.88;;;;;;;;;;5030521;28;20402;-72
2022/01/16 14:11:13;;;;;;;9.68;5.07;;;;;;;;;;5025178;28;20499;-69
2022/01/16 14:13:57;;;;;;;7.85;4.47;;;;;;;;;;5009549;28;20030;-72
2022/01/16 14:16:37;;;;;;;6.78;4.07;;;;;;;;;;5011475;28;20076;-71
2022/01/16 14:24:11;;;;;;;14.73;7.25;;;;;;;;;;5020029;28;20040;-73
2022/01/16 14:26:54;;;;;;;9.63;5.20;;;;;;;;;;5026316;28;20065;-71
2022/01/16 14:29:22;;;;;;;8.20;4.68;;;;;;;;;;5012216;28;20112;-75
2022/01/16 14:31:50;;;;;;;8.23;4.20;;;;;;;;;;5011350;28;20476;-72
2022/01/16 14:34:17;;;;;;;7.57;4.35;;;;;;;;;;5028408;28;20128;-70
2022/01/16 14:36:43;;;;;;;9.38;5.60;;;;;;;;;;5030849;28;20030;-72
2022/01/16 14:39:10;;;;;;;14.43;6.80;;;;;;;;;;5032538;28;20033;-75
2022/01/16 14:41:38;;;;;;;7.57;4.97;;;;;;;;;;5026177;28;20025;-76
2022/01/16 14:44:05;;;;;;;9.38;5.10;;;;;;;;;;5031867;28;20056;-73
2022/01/16 14:46:31;;;;;;;15.77;7.55;;;;;;;;;;5014795;28;20026;-72
2022/01/16 14:48:58;;;;;;;11.20;6.05;;;;;;;;;;5012307;28;20116;-74
2022/01/16 14:51:25;;;;;;;10.30;5.90;;;;;;;;;;5012282;28;20465;-68
2022/01/16 14:53:50;;;;;;;18.25;8.95;;;;;;;;;;5018008;28;20038;-72
2022/01/16 14:56:17;;;;;;;21.35;10.07;;;;;;;;;;5022890;28;20034;-68
2022/01/16 14:58:44;;;;;;;12.95;7.32;;;;;;;;;;5021568;28;20112;-72
2022/01/16 15:01:11;;;;;;;13.50;8.27;;;;;;;;;;5031143;28;20021;-68
2022/01/16 15:03:38;;;;;;;15.07;8.55;;;;;;;;;;5012570;28;20041;-73
2022/01/16 15:06:08;;;;;;;15.48;9.73;;;;;;;;;;5021990;28;20029;-69
2022/01/16 15:08:36;;;;;;;18.08;9.70;;;;;;;;;;5017581;28;20436;-70
2022/01/16 15:11:02;;;;;;;31.15;15.35;;;;;;;;;;5015736;28;20044;-69
2022/01/16 15:13:28;;;;;;;26.63;16.00;;;;;;;;;;5012557;28;20045;-70
2022/01/16 15:15:53;;;;;;;16.52;10.52;;;;;;;;;;5020157;28;20029;-71
2022/01/16 15:18:21;;;;;;;18.60;10.27;;;;;;;;;;5012355;28;20061;-72
2022/01/16 15:20:53;;;;;;;18.58;10.60;;;;;;;;;;5010557;28;20034;-70
2022/01/16 15:23:19;;;;;;;20.42;11.10;;;;;;;;;;5020101;28;20042;-76
2022/01/16 15:25:46;;;;;;;14.73;8.68;;;;;;;;;;5015080;28;20026;-70
2022/01/16 15:28:12;;;;;;;16.10;9.10;;;;;;;;;;5015674;28;20038;-71
2022/01/16 15:30:38;;;;;;;15.95;10.02;;;;;;;;;;5015421;28;20030;-70